x

9442396 - La Push, Wa (lapw1) Weather Station

5:36 - Sun 19th Apr 2015 All times are PDT. -7 hours from GMT.

  • Wind
    16mph, 21mph gusts
  • Sea Temp 52°f
  • Ar Temp 52°f
  • Sea Pressure 1018.2mb
  • 9442396 - La Push, Wa
  • 9442396 - La Push, Wa

More Historic Weather Station data

Upgrade to MSW Pro to gain access to the past 30 days of data for over 8000 Wavebouys and Weather Stations around the globe.

Join Pro

Comparision Forecast

View Surf forecast
   
Dom 04/19 5:36 16 21 mph 1018.2mb 52f 52f
5:30 18 21 mph 1018.3mb 52f 52f
5:24 17 21 mph 1018.4mb 52f 52f
5:18 16 21 mph 1018.4mb 51f 52f
5:12 16 21 mph 1018.5mb 51f 52f
5:06 17 23 mph 1018.6mb 51f 52f
5:00 17 22 mph 1018.6mb 50f 52f
4:36 18 22 mph 1018.8mb 50f 52f
4:30 16 22 mph 1018.9mb 50f 52f
4:24 18 23 mph 1019mb 50f 52f
4:18 20 22 mph 1019.1mb 50f 52f
4:12 18 22 mph 1019.1mb 50f 52f
4:06 20 23 mph 1019.3mb 50f 52f
4:00 20 23 mph 1019.3mb 50f 52f
3:36 17 21 mph 1019.7mb 50f 51f
3:30 17 22 mph 1019.7mb 50f 51f
3:24 18 22 mph 1019.8mb 50f 51f
3:18 20 22 mph 1019.8mb 50f 52f
3:12 18 21 mph 1019.8mb 50f 52f
3:06 17 21 mph 1019.9mb 50f 52f
3:00 18 21 mph 1020mb 50f 51f
2:36 17 21 mph 1020.2mb 50f 51f
2:30 16 18 mph 1020.3mb 50f 51f
2:24 17 21 mph 1020.3mb 50f 51f
2:18 17 20 mph 1020.4mb 50f 51f
2:12  -  mph 1020.4mb 50f -
2:06 16 20 mph 1020.4mb 50f 51f
2:00 15 17 mph 1020.5mb 50f 51f
1:36 11 13 mph 1020.6mb 50f 51f
1:30 10 11 mph 1020.7mb 50f 51f
1:24 10 13 mph 1020.7mb 50f 50f
1:18 10 11 mph 1020.8mb 50f 50f
1:12 9 10 mph 1020.8mb 50f 50f
1:06 8 10 mph 1020.8mb 50f 50f
1:00 8 10 mph 1020.8mb 50f 50f
12:36 8 9 mph 1021.1mb 50f 49f
12:30 8 9 mph 1021.1mb 50f 49f
12:24 8 9 mph 1021.1mb 49f 49f
12:18 9 10 mph 1021.2mb 49f 49f
12:12  -  mph 1021.3mb 49f -
12:06 8 9 mph 1021.4mb 49f 49f
12:00 7 8 mph 1021.4mb 49f 49f
11:36 8 9 mph 1021.6mb 50f 47f
11:30 6 8 mph 1021.7mb 49f 48f
11:24 6 7 mph 1021.7mb 49f 47f
11:18 5 6 mph 1021.8mb 49f 47f
11:12 5 6 mph 1021.8mb 49f 47f
11:06 5 6 mph 1021.9mb 50f 47f
11:00 6 7 mph 1021.9mb 50f 47f
10:36 5 6 mph 1022mb 51f 47f
10:30 5 6 mph 1022mb 50f 47f
10:24 3 6 mph 1022mb 50f 48f
10:18  -  mph 1022mb 50f -
10:12  -  2 mph 1022mb 50f 47f
10:06 2 5 mph 1022.1mb 50f 47f
10:00 3 6 mph 1022.1mb 51f 47f
9:36 7 8 mph 1022.2mb 50f 47f
9:30 6 7 mph 1022.3mb 50f 48f
9:24 3 5 mph 1022.3mb 50f 48f
9:18 2 3 mph 1022.4mb 50f 48f
9:12 2 5 mph 1022.4mb 50f 47f
9:06 2 5 mph 1022.4mb 50f 47f
9:00 2 6 mph 1022.5mb 50f 46f
8:36 3 6 mph 1022.6mb 51f 44f
8:30 5 8 mph 1022.7mb 51f 43f
8:24 5 8 mph 1022.7mb 51f 42f
8:18 5 8 mph 1022.7mb 51f 42f
8:12 6 7 mph 1022.7mb 51f 42f
8:06 5 8 mph 1022.8mb 51f 42f
8:00 3 7 mph 1022.8mb 51f 41f
7:36 9 11 mph - - 40f
7:30 10 13 mph 1022.7mb 52f 40f
7:24 8 11 mph - - 40f
7:18 6 8 mph 1022.7mb 52f 40f
7:12 7 9 mph 1022.8mb 52f 40f
7:06  -  mph 1022.8mb 52f -
7:00 5 8 mph 1022.9mb 52f 40f
6:36 5 8 mph 1022.8mb 52f 40f
6:30 6 8 mph 1022.8mb 52f 40f
6:24 5 9 mph 1022.8mb 52f 40f
6:18 5 9 mph 1022.8mb 52f 40f
6:12  -  mph 1022.8mb 52f -
6:06 8 11 mph 1022.7mb 52f 40f
6:00 8 11 mph 1022.8mb 52f 40f
5:36 8 11 mph 1023mb 52f 41f
5:30 8 10 mph 1023mb 52f 41f
5:24 7 10 mph 1023mb 52f 41f
5:18 6 8 mph 1023.1mb 52f 41f
5:12 5 8 mph 1023.1mb 52f 41f
5:06 7 9 mph 1023.1mb 52f 41f
5:00 6 8 mph 1023.2mb 52f 41f
4:36 6 8 mph 1023.3mb 51f 42f
4:30 7 8 mph 1023.4mb 51f 42f
4:24  -  mph 1023.4mb 51f -
4:18 6 8 mph 1023.5mb 51f 42f
4:12 6 7 mph 1023.5mb 51f 42f
4:06 6 7 mph 1023.5mb 51f 42f
4:00 6 7 mph 1023.5mb 51f 43f
3:36 5 7 mph 1023.4mb 51f 43f
3:30 6 8 mph 1023.4mb 51f 43f
3:24 6 7 mph 1023.4mb 51f 44f
3:18 5 7 mph 1023.5mb 51f 44f
3:12 5 7 mph 1023.5mb 51f 44f
3:06 6 7 mph 1023.6mb 51f 44f
3:00 5 6 mph 1023.6mb 51f 44f
2:36 5 6 mph 1023.6mb 51f 45f
2:30 5 6 mph 1023.7mb 51f 44f
2:24 5 6 mph 1023.7mb 51f 45f
2:18 3 7 mph 1023.8mb 51f 44f
2:12 5 6 mph 1023.8mb 51f 45f
2:06 3 5 mph 1023.8mb 51f 45f
2:00 3 6 mph 1023.8mb 51f 45f
1:36 3 7 mph 1023.9mb 51f 46f
1:30 5 8 mph 1023.9mb 51f 46f
1:24 7 8 mph 1023.9mb 51f 46f
1:18 7
mph
1023.9mb 51f 46f
1:12 5 7 mph 1023.9mb 51f 46f
1:06 1 6 mph 1023.9mb 51f 46f
1:00 2 5 mph 1023.9mb 51f 46f
12:36 2 5 mph 1024mb 51f 46f
12:30 2 3 mph 1024mb 51f 47f
12:24 2
mph
1024mb 51f 47f
12:18 2 3 mph 1024mb 51f 47f
12:12 2
mph
1024mb 51f 48f
12:06  -  2 mph 1024mb 51f 47f
12:00 2 3 mph 1023.9mb 51f 49f
Sáb 04/18 11:36 3 6 mph - - 49f
11:30 3 8 mph 1024.1mb 51f 49f
11:18 2 5 mph - - 49f
11:12 3 5 mph 1024.1mb 51f 49f
11:06 2 5 mph 1024.1mb 51f 48f
11:00 2 7 mph - - 48f
10:36 3 6 mph 1024.3mb 51f 48f
10:30 3 7 mph 1024.3mb 51f 49f
10:24 2 5 mph 1024.3mb 51f 48f
10:18 1 5 mph 1024.3mb 51f 48f
10:12 5
mph
1024.3mb 51f 49f
10:06 3 6 mph 1024.4mb 51f 48f
10:00 5 7 mph 1024.4mb 51f 49f
9:36 3 6 mph 1024.5mb 51f 49f
9:30 3 7 mph 1024.5mb 51f 50f
9:24 3 6 mph 1024.5mb 52f 49f
9:18 2
mph
1024.4mb 52f 48f
9:12  -  2 mph 1024.4mb 52f 49f
9:06  -  2 mph 1024.5mb 53f 48f
9:00 1 2 mph 1024.4mb 53f 49f
8:36 1 2 mph 1024.4mb 53f 49f
8:30 2 3 mph 1024.4mb 53f 50f
8:24 1 2 mph 1024.4mb 53f 50f
8:18 1 5 mph 1024.5mb 53f 50f
8:12 1 2 mph 1024.5mb 53f 51f
8:06 1 9 mph 1024.5mb 53f 51f
8:00 8 11 mph 1024.5mb 53f 52f
7:36 8 10 mph 1024.7mb 53f 51f
7:30 10 14 mph 1024.8mb 53f 51f
7:24 13 16 mph 1024.9mb 53f 51f
7:18 15 20 mph 1025.1mb 53f 51f
7:12 16 21 mph 1025.2mb 53f 51f
7:06 13 17 mph 1025.2mb 53f 51f
7:00 15 18 mph 1025.3mb 53f 51f
6:54 17 20 mph - - 51f
6:48 15 20 mph 1025.5mb 53f 51f
6:36 14 16 mph 1025.6mb 53f 51f
6:30  -  mph 1025.6mb 53f -
6:24 13 15 mph 1025.8mb 53f 51f
6:18  -  mph 1025.8mb 53f -
6:12 14 17 mph 1025.9mb 53f 51f
6:06  -  mph 1026mb 52f -
6:00 13 16 mph 1026mb 52f 51f
5:54 14 16 mph 1026mb 52f 51f
5:48 14 16 mph 1026.1mb 52f 51f
5:36 14 17 mph 1026.2mb 52f 51f
5:30 14 16 mph 1026.2mb 52f 51f
5:24 14 16 mph 1026.3mb 52f 51f
5:18 14 16 mph 1026.4mb 52f 51f
5:12 15 18 mph 1026.4mb 52f 51f
5:06 15 17 mph 1026.3mb 52f 52f
5:00 8 11 mph 1026.1mb 52f 52f
4:54 6 10 mph 1026mb 51f 53f
4:48 8 10 mph 1026.1mb 51f 52f
4:36 7 13 mph 1026.2mb 52f 51f
4:30 9 11 mph 1026.3mb 51f 51f
4:24  -  mph 1026.4mb 52f -
4:18 10 13 mph 1026.5mb 51f 50f
4:12 11 14 mph 1026.6mb 51f 50f
4:06 13 14 mph 1026.7mb 51f 49f
4:00 11 14 mph 1026.8mb 51f 49f
3:54  -  mph 1026.9mb 51f -
3:48 14 16 mph 1027mb 51f 49f
3:36 13 15 mph 1027.1mb 51f 50f
3:30 11 15 mph 1027.1mb 51f 50f
3:24 14 16 mph 1027.2mb 51f 50f
3:18 15 17 mph 1027.4mb 51f 50f
3:12 14 17 mph 1027.4mb 51f 50f
3:06 15 17 mph 1027.4mb 51f 50f
3:00 14 16 mph 1027.5mb 51f 49f
2:54 16 17 mph 1027.6mb 51f 49f
2:48 14 16 mph 1027.5mb 51f 49f
2:36 13 16 mph 1027.5mb 51f 50f
2:30 15 16 mph 1027.6mb 51f 49f
2:24 13 16 mph 1027.6mb 51f 49f
2:18 13 15 mph 1027.6mb 51f 50f
2:12 14 15 mph 1027.6mb 51f 50f
2:06 11 15 mph 1027.6mb 51f 50f
2:00 10 14 mph 1027.6mb 51f 50f
1:54  -  mph 1027.6mb 51f -
1:48 11 16 mph 1027.6mb 51f 50f
1:36  -  mph 1027.7mb 51f -
1:30 13 15 mph 1027.8mb 51f 50f
1:24 13 15 mph 1027.8mb 51f 50f
1:18 13 15 mph 1027.9mb 51f 50f
1:12  -  mph 1027.9mb 51f -
1:06 14 15 mph 1027.9mb 51f 50f
1:00  -  mph 1027.8mb 51f -
12:54 11 14 mph 1027.9mb 51f 50f
12:48 11 13 mph 1027.9mb 51f 50f
12:36 9 10 mph 1027.9mb 51f 50f
12:30 10 11 mph 1028mb 51f 50f
12:24 9 11 mph 1028mb 51f 50f
12:18  -  mph 1028mb 51f -
12:12 10 11 mph 1028.1mb 51f 50f
12:06 10 11 mph 1028mb 51f 50f
12:00 9 10 mph - - 51f
11:54 9 10 mph 1028mb 50f 51f
11:48 8 10 mph 1028mb 50f 51f
11:36  -  mph 1028mb 50f -
11:30 7 8 mph 1028mb 50f 50f
11:24 7 8 mph 1028mb 50f 50f
11:18 6 7 mph 1028mb 50f 51f
11:12 7 8 mph 1028mb 50f 50f
11:06 6
mph
1028.1mb 50f 51f
11:00 5 6 mph 1028.1mb 49f 51f
10:54 5 6 mph 1028mb 49f 51f
10:48 3 5 mph 1028.1mb 49f 51f
10:36 2 3 mph 1028.2mb 49f 51f
10:30 3
mph
1028.3mb 49f 51f
10:24 2 3 mph 1028.3mb 49f 51f
10:18 3 6 mph 1028.3mb 49f 51f
10:12 3
mph
1028.2mb 49f 51f
10:06 2 3 mph 1028.3mb 48f 52f
10:00 1 2 mph 1028.3mb 48f 52f
9:54 1 3 mph 1028.2mb 48f 52f
9:48 2 6 mph 1028.2mb 48f 52f
9:36 6 7 mph 1028.1mb 48f 50f
9:30 3 7 mph 1028.1mb 48f 50f
9:24 5 7 mph 1028.3mb 49f 49f
9:18 5 8 mph 1028.3mb 49f 48f
9:12  -  mph 1028.3mb 49f -
9:06 7 9 mph 1028.2mb 49f 46f
9:00 7 10 mph 1028.1mb 49f 46f
8:54 7 9 mph 1028.1mb 49f 45f
8:48 8 11 mph 1028.1mb 49f 44f
8:36  -  mph 1028.1mb 49f -
8:30 7 9 mph 1028.2mb 50f 43f
8:24 7 9 mph 1028.1mb 50f 42f
8:18 7 10 mph 1028.1mb 50f 42f
8:12 8 10 mph 1028.2mb 50f 41f
8:06 8 11 mph 1028.2mb 50f 41f
8:00 8 10 mph 1028.2mb 50f 41f
7:54 8 10 mph 1028.2mb 50f 40f
7:48  -  mph 1028.1mb 50f -
7:36 8 11 mph 1028.1mb 51f 40f
7:30 9 10 mph 1028.1mb 51f 40f
7:24 8 11 mph 1028.1mb 51f 39f
7:18  -  mph 1028mb 51f -
7:12 9 11 mph 1028mb 51f 39f
7:06 8 10 mph 1027.9mb 51f 39f
7:00 8 10 mph 1027.9mb 51f 39f
6:54 8 10 mph 1027.9mb 51f 39f
6:48 8 10 mph 1027.9mb 51f 39f
6:36 8 10 mph 1027.8mb 51f 39f
6:30  -  mph 1027.8mb 51f -
6:24 7 9 mph 1027.9mb 51f 39f
6:18 8 11 mph 1027.8mb 51f 39f
6:12 8 9 mph 1027.7mb 51f 39f
6:06 7 9 mph 1027.6mb 51f 39f
6:00 7 9 mph 1027.5mb 51f 39f
5:54 8 11 mph 1027.4mb 51f 39f
5:48 8 11 mph 1027.3mb 51f 39f
5:36 10 13 mph 1027.2mb 51f 39f
5:30 8 10 mph 1027.1mb 51f 39f
5:24  -  mph 1027.2mb 51f -
5:18 8 11 mph 1027.1mb 51f 40f
5:12 8 11 mph 1027mb 51f 40f
5:06 9 13 mph 1026.9mb 52f 40f
5:00 10 11 mph 1027mb 52f 40f
4:54 8 11 mph 1027mb 52f 40f
4:48 9 10 mph 1027.1mb 52f 40f
4:36 8 10 mph 1027.1mb 52f 41f
4:30  -  mph 1027.1mb 52f -
4:24 8 10 mph 1027.1mb 52f 41f
4:18 8 11 mph 1027.2mb 52f 41f
4:12 9 11 mph 1027.2mb 52f 41f
4:06 8 10 mph 1027.1mb 52f 41f
4:00 8 10 mph 1027.1mb 52f 41f
3:54 9 11 mph 1027.1mb 52f 41f
3:48 8 11 mph 1027.1mb 52f 42f
3:36 7 9 mph 1027.1mb 52f 42f
3:30 8 10 mph 1027.1mb 52f 42f
3:24  -  mph 1027.1mb 52f -
3:18 7 9 mph 1027.1mb 52f 43f
3:12 6 8 mph 1027.1mb 52f 43f
3:06 7 9 mph 1027mb 52f 43f
3:00 6 8 mph 1026.9mb 52f 43f
2:54  -  mph 1027mb 52f -
2:48 7 9 mph 1027mb 52f 43f
2:36 7 10 mph 1026.9mb 52f 44f
2:30  -  mph 1026.9mb 52f -
2:24 8 9 mph 1026.9mb 52f 44f
2:18 6 9 mph 1026.9mb 52f 44f
2:12 7 9 mph 1027mb 52f 44f
2:06 7 8 mph 1026.9mb 52f 45f
2:00 6 8 mph 1027mb 52f 45f
1:54 6 8 mph 1027mb 52f 45f
1:48 5 7 mph 1027.1mb 52f 46f
1:36 3 5 mph 1027.1mb 52f 46f
1:30  -  mph 1027mb 52f -
1:24 2 5 mph 1027mb 52f 46f
1:18 3 6 mph 1027mb 52f 47f
1:12 6 7 mph 1026.9mb 52f 47f
1:06 5 6 mph 1026.9mb 52f 47f
1:00 5 6 mph 1027mb 52f 46f
12:54 5
mph
1027.1mb 52f 47f
12:48 3 6 mph 1027mb 52f 47f
12:36 3 6 mph 1027.2mb 52f 47f
12:30 3 6 mph 1027.2mb 52f 47f
12:24 2 3 mph 1027.2mb 52f 46f
12:18  -  3 mph 1027.3mb 52f 46f
12:12 2
mph
1027.3mb 52f 46f
12:06 1 3 mph 1027.4mb 52f 46f
12:00 3 5 mph 1027.4mb 52f 46f
Sex 04/17 11:54 2 6 mph - - 46f
11:48 5 6 mph 1027.3mb 52f 46f
11:36 5 6 mph - - 46f
11:30 3 5 mph - - 45f
11:24 3
mph
1027.2mb 52f 46f
11:18 3
mph
- - 46f
11:12 2 5 mph - - 46f
11:06 3
mph
1027.2mb 52f 46f
11:00 3 5 mph - - 46f
10:54 3 5 mph 1027.2mb 52f 47f
10:48 3 6 mph 1027.2mb 52f 47f
10:36 2 5 mph - - 47f
10:30 2
mph
- - 47f
10:24 2 5 mph 1027.3mb 52f 47f
10:18 3 6 mph 1027.3mb 52f 47f
10:12 2 5 mph 1027.3mb 52f 47f
10:06 3 5 mph 1027.2mb 52f 47f
10:00 3 5 mph 1027.2mb 52f 47f
9:54 2 3 mph 1027.1mb 52f 47f
9:48 2 5 mph 1027.1mb 52f 47f
9:36 3 5 mph 1027.1mb 52f 48f
9:30 2 3 mph 1026.9mb 52f 48f
9:24 2 3 mph 1026.9mb 52f 48f
9:18 2 5 mph 1026.8mb 52f 49f
9:12 3 6 mph 1026.8mb 52f 49f
9:06 2 5 mph 1026.8mb 52f 49f
9:00 2 3 mph - - 49f
8:54 2 5 mph 1026.6mb 52f 49f
8:48 3 6 mph 1026.6mb 52f 49f
8:36 7 10 mph 1026.5mb 52f 50f
8:30 10 13 mph 1026.5mb 52f 50f
8:24 7 13 mph 1026.3mb 52f 50f
8:18 10 14 mph 1026.3mb 52f 51f
8:12 10 14 mph 1026.3mb 52f 50f
8:06 11 15 mph 1026.3mb 52f 51f
8:00 13 16 mph 1026.3mb 52f 51f
7:54 11 15 mph 1026.2mb 52f 51f
7:48 10 15 mph 1026.1mb 52f 51f
7:36 10 14 mph 1026.1mb 52f 51f
7:30 11 14 mph 1026mb 52f 51f
7:24 10 14 mph 1026mb 52f 51f
7:18 10 14 mph 1026.1mb 52f 51f
7:12 11 14 mph 1026.1mb 52f 51f
7:06 13 17 mph 1026.2mb 52f 51f
7:00 13 16 mph 1026.2mb 52f 51f
6:54 13 18 mph 1026.2mb 52f 51f
6:48 11 16 mph 1026.3mb 52f 51f
6:36 14 16 mph 1026.2mb 52f 51f
6:30 13 20 mph 1026.2mb 52f 51f
6:24 14 17 mph 1026.1mb 52f 51f
6:18 14 16 mph 1026.1mb 52f 51f
6:12 15 17 mph 1026.2mb 52f 51f
6:06 14 18 mph 1026.2mb 52f 51f
6:00 14 16 mph 1026.1mb 52f 51f
5:54 13 18 mph 1026mb 52f 51f
5:48 14 17 mph 1026mb 52f 51f
5:36 15 18 mph 1026.1mb 52f 51f
5:30 16 18 mph 1026.1mb 52f 51f
5:24 15 20 mph 1026.2mb 52f 51f
5:18 16 18 mph 1026.3mb 52f 52f
5:12 15 17 mph 1026.3mb 52f 51f
5:06 16 20 mph 1026.3mb 52f 51f
5:00 14 17 mph 1026.2mb 52f 52f
4:54 16 20 mph 1026.2mb 52f 51f
4:48 18 22 mph 1026.3mb 52f 51f
4:36 16 20 mph 1026.4mb 52f 51f
4:30 16 21 mph 1026.4mb 51f 51f
4:24 17 21 mph 1026.6mb 51f 51f
4:18 17 21 mph 1026.5mb 51f 51f
4:12 15 21 mph 1026.5mb 51f 51f
4:06 15 20 mph 1026.6mb 51f 51f
4:00 16 20 mph 1026.5mb 51f 51f
3:54 17 21 mph 1026.6mb 51f 51f
3:48  -  mph 1026.8mb 51f -
3:36 15 23 mph 1026.7mb 51f 51f
3:30 17 21 mph 1026.9mb 51f 51f
3:24 15 21 mph 1026.9mb 51f 51f
3:18 16 22 mph 1027mb 51f 51f
3:12 17 21 mph 1027mb 51f 51f
3:06 17 21 mph 1027.1mb 51f 51f
3:00 16 21 mph - - 51f
2:54 17 21 mph 1027mb 51f 51f
2:48 15 18 mph 1027mb 51f 51f
2:36 17 21 mph 1027mb 51f 51f
2:30 14 21 mph 1027mb 52f 51f
2:24 17 21 mph 1027.1mb 52f 51f
2:18 15 18 mph 1027.1mb 52f 51f
2:12 17 20 mph 1027.1mb 52f 51f
2:06 15 20 mph 1027mb 52f 51f
2:00 17 21 mph 1027mb 52f 51f
1:54 17 20 mph 1026.9mb 52f 51f
1:48 16 21 mph 1026.9mb 52f 51f
1:36 18 21 mph - - 52f
1:30 11 14 mph 1026.7mb 52f 53f
1:24 11 14 mph 1026.7mb 52f 52f
1:18 13 15 mph 1026.7mb 52f 52f
1:12 14 15 mph 1026.7mb 52f 52f
1:06 11 14 mph 1026.6mb 52f 53f
1:00 8 11 mph 1026.6mb 52f 52f
12:54 10 11 mph 1026.5mb 52f 52f
12:48 9 10 mph 1026.5mb 52f 52f
12:36 9 13 mph 1026.6mb 52f 52f
12:30 10 13 mph 1026.6mb 52f 52f
12:24 10 13 mph 1026.4mb 52f 52f
12:18 10 14 mph 1026.4mb 52f 52f
12:12  -  mph 1026.4mb 52f -
12:06 13 15 mph 1026.3mb 52f 52f
12:00 13 15 mph 1026.4mb 52f 51f
11:54 14 15 mph 1026.4mb 52f 51f
11:48 11 15 mph 1026.4mb 52f 51f
11:36 14 15 mph 1026.4mb 52f 51f
11:30 13 14 mph 1026.3mb 52f 51f
11:24 11 14 mph 1026.2mb 52f 51f
11:18 11 14 mph 1026.2mb 52f 51f
11:12 11 15 mph 1026.3mb 52f 51f
11:06 13 15 mph 1026.3mb 52f 51f
11:00 13 15 mph 1026.2mb 52f 51f
10:54 13 16 mph 1026.2mb 52f 51f
10:48 14 16 mph 1026.2mb 52f 51f
10:36 13 17 mph 1026.2mb 52f 51f
10:30 14 16 mph 1026.2mb 51f 51f
10:24 13 16 mph 1026.2mb 51f 51f
10:18 13 14 mph 1026mb 51f 51f
10:12 13 15 mph 1026mb 51f 51f
10:06 13 18 mph 1025.9mb 51f 51f
10:00 14 16 mph 1025.9mb 51f 51f
9:54 14 16 mph 1025.8mb 51f 51f
9:48 13 16 mph 1025.7mb 51f 51f
9:36 13 16 mph 1025.6mb 51f 51f
9:30 11 14 mph 1025.6mb 50f 51f
9:24 9 15 mph 1025.4mb 50f 51f
9:18 10 11 mph 1025.5mb 50f 51f
9:12 10 13 mph 1025.5mb 50f 51f
9:06 10 13 mph 1025.5mb 50f 51f
9:00 10 13 mph 1025.4mb 49f 50f
8:54 8 11 mph 1025.3mb 49f 50f
8:48 8 10 mph 1025.3mb 49f 50f
8:36 8 9 mph 1025.3mb 49f 50f
8:30 3 8 mph 1025.2mb 49f 49f
8:24 2 3 mph 1025.3mb 49f 48f
8:18 2 3 mph 1025.1mb 49f 47f
8:12  -  2 mph 1025mb 49f 47f
8:06 2
mph
1024.8mb 49f 47f
8:00 1 2 mph 1024.8mb 49f 47f
7:54 1 2 mph 1024.8mb 50f 46f
7:48 1 3 mph 1024.7mb 50f 46f
7:36 1 2 mph - - 45f
7:30 1 2 mph - - 45f
7:24  -  2 mph 1024.6mb 50f 45f
7:18  -  2 mph 1024.5mb 50f 45f
7:12  -  2 mph 1024.6mb 50f 44f
7:06  -  3 mph 1024.5mb 50f 44f
7:00 2 5 mph 1024.4mb 50f 45f
6:54 3 7 mph 1024.3mb 50f 45f
6:48 3 5 mph 1024.3mb 50f 45f
6:36 2 5 mph 1024.6mb 50f 45f
6:30 2 6 mph 1024.5mb 50f 45f
6:24 3 6 mph 1024.5mb 50f 44f
6:18 5 7 mph 1024.5mb 50f 44f
6:12 6 8 mph 1024.5mb 50f 44f
6:06 5 7 mph 1024.5mb 50f 44f
6:00 3 8 mph 1024.6mb 50f 44f
5:54 7 8 mph 1024.6mb 50f 44f
5:48 6 8 mph 1024.7mb 50f 44f
5:36 3 8 mph 1024.8mb 50f 44f
5:30 3 7 mph 1024.7mb 50f 44f
5:24 6 7 mph 1024.7mb 50f 44f
5:18 6 7 mph 1024.8mb 50f 45f
5:12 5 7 mph 1024.9mb 51f 45f
5:06 6 8 mph 1024.9mb 51f 46f
5:00 5 6 mph 1025mb 51f 47f
4:54 1 6 mph 1025.1mb 51f 47f
4:48 5 7 mph 1025.1mb 51f 47f
4:30  -  mph - - 47f
4:24  -  mph - - 47f
4:18  -  mph - - 47f
4:12  -  mph - - 46f
4:06  -  mph - - 46f
4:00  -  mph - - 47f
3:54  -  mph - - 47f
3:48  -  mph - - 46f
3:36 3
mph
1024.8mb 51f 46f
3:30 2 3 mph 1024.7mb 51f 46f
3:24 1 3 mph 1024.6mb 51f 46f
3:18 3 5 mph 1024.5mb 51f 46f
3:12 3 6 mph 1024.6mb 51f 46f
3:06 3 5 mph 1024.5mb 51f 46f
3:00 2 5 mph 1024.3mb 51f 46f
2:54 3 6 mph 1024.3mb 51f 46f
2:48 5 6 mph 1024.2mb 51f 46f
2:36 5
mph
1024.4mb 51f 47f
2:30  -  mph 1024.5mb 52f -
2:24 3 6 mph 1024.5mb 52f 47f
2:18 2 3 mph 1024.3mb 52f 46f
2:12 3 5 mph 1024.3mb 52f 47f
2:06 1 3 mph 1024.4mb 52f 46f
2:00 2 3 mph 1024.4mb 52f 46f
1:54 2 3 mph 1024.4mb 52f 47f
1:48 2 3 mph 1024.5mb 52f 47f
1:36 1 3 mph 1024.4mb 52f 46f
1:30 2
mph
1024.3mb 52f 47f
1:24 2
mph
1024.3mb 52f 47f
1:18 2
mph
1024.3mb 52f 47f
1:12 2 3 mph 1024.3mb 52f 48f
1:06 2 3 mph 1024.3mb 52f 48f
1:00 2
mph
1024.2mb 52f 48f
12:54 1 3 mph 1024.2mb 52f 49f
12:48 3 5 mph 1024.1mb 52f 48f
12:36 1 3 mph 1024.2mb 52f 49f
12:30 3 6 mph 1024.1mb 52f 49f
12:24 2 6 mph 1024.2mb 52f 49f
12:18 3 7 mph 1024.3mb 52f 49f
12:12 3 7 mph 1024.3mb 52f 49f
12:06 5 7 mph 1024.4mb 52f 49f
12:00 6 9 mph 1024.4mb 52f 49f
Qui 04/16 11:54 5 7 mph 1024.4mb 52f 50f
11:48 2 8 mph 1024.4mb 52f 49f
11:36 3 7 mph - - -
11:30 2 6 mph - - -
11:24 5 9 mph - - -
11:18 8 10 mph - - -
11:12 9 13 mph - - -
11:06 9 11 mph - - -
11:00 9 10 mph - - -
10:54 9 11 mph - - -
10:48 9 11 mph - - -
10:36 8 10 mph 1024.2mb 53f 51f
10:30 5 11 mph 1024.2mb 53f 51f
10:24 8 11 mph 1024.2mb 52f 51f
10:18  -  mph 1024.2mb 52f -
10:12 9 13 mph 1024.1mb 52f 51f
10:06 10 13 mph 1024.1mb 52f 51f
10:00 9 11 mph 1024.1mb 52f 51f
9:54 9 13 mph 1024mb 52f 51f
9:48 9 11 mph 1024mb 52f 51f
9:36 11 13 mph - - 51f
9:30 11 14 mph - - 51f
9:24 13 15 mph 1023.9mb 52f 51f
9:18 13 16 mph 1023.9mb 52f 51f
9:12 14 17 mph 1023.9mb 52f 51f
9:06 13 16 mph 1023.9mb 52f 51f
9:00 13 14 mph 1023.9mb 52f 51f
8:54 11 16 mph 1023.9mb 51f 51f
8:48 13 16 mph 1023.8mb 51f 51f
8:36 14 16 mph 1023.7mb 51f 51f
8:30 14 16 mph 1023.7mb 51f 51f
8:24 14 18 mph 1023.7mb 51f 52f
8:18 15 17 mph 1023.7mb 51f 52f
8:12 14 17 mph 1023.7mb 51f 52f
8:06 15 17 mph 1023.8mb 51f 52f
8:00 15 17 mph 1023.7mb 51f 52f
7:54 14 16 mph 1023.7mb 51f 52f
7:48 13 18 mph 1023.7mb 51f 52f
7:36 15 18 mph 1023.7mb 51f 52f
7:30 16 18 mph 1023.7mb 51f 52f
7:24 14 17 mph 1023.7mb 51f 52f
7:18 16 18 mph 1023.7mb 51f 52f
7:12 15 18 mph 1023.8mb 51f 52f
7:06 15 17 mph 1023.8mb 51f 53f
7:00 15 18 mph 1023.8mb 51f 53f
6:54 16 20 mph 1024mb 51f 53f
6:48 16 20 mph 1024mb 51f 52f
6:36 17 21 mph 1024.2mb 51f 52f
6:30 17 22 mph 1024.3mb 51f 52f
6:24 18 23 mph 1024.4mb 51f 52f
6:18 18 22 mph 1024.4mb 51f 52f
6:12 18 23 mph 1024.5mb 51f 52f
6:06 18 22 mph 1024.5mb 51f 52f
6:00 20 23 mph 1024.6mb 51f 52f
5:54 20 23 mph 1024.7mb 51f 52f
5:48 18 23 mph 1024.8mb 51f 52f
5:36 21 26 mph 1025mb 51f 52f
5:30 21 25 mph 1025.1mb 51f 52f
5:24 21 25 mph 1025.1mb 51f 52f
5:18 20 24 mph 1025.2mb 51f 52f
5:12 20 23 mph 1025.3mb 51f 52f
5:06 21 25 mph 1025.3mb 51f 52f
5:00 20 25 mph 1025.3mb 51f 52f
4:54 21 24 mph 1025.4mb 51f 52f
4:48 18 24 mph 1025.4mb 51f 52f
4:36 18 23 mph 1025.5mb 51f 52f
4:30 20 24 mph 1025.6mb 50f 52f
4:24 21 24 mph 1025.7mb 50f 52f
4:18 22 25 mph 1025.8mb 50f 52f
4:12 21 25 mph 1025.8mb 50f 52f
4:06 23 26 mph 1025.8mb 50f 52f
4:00 22 25 mph 1025.9mb 50f 52f
3:54 22 26 mph 1026mb 50f 52f
3:48 22 26 mph 1026.1mb 50f 52f
3:36 22 26 mph 1026.1mb 50f 51f
3:30 23 26 mph 1026.2mb 50f 51f
3:24 21 25 mph 1026.2mb 50f 51f
3:18 22 26 mph 1026.4mb 50f 51f
3:12 21 25 mph 1026.5mb 50f 51f
3:06 21 25 mph 1026.5mb 49f 51f
3:00 21 25 mph 1026.6mb 49f 52f
2:54 21 24 mph 1026.6mb 49f 51f
2:48 20 24 mph 1026.7mb 49f 51f
2:36 20 23 mph 1026.8mb 49f 51f
2:30 18 23 mph 1026.9mb 49f 51f
2:24 18 24 mph 1027mb 49f 51f
2:18 20 23 mph 1027mb 49f 51f
2:12 18 23 mph 1027mb 49f 51f
2:06 18 23 mph 1027.1mb 49f 51f
2:00 18 24 mph 1027.1mb 49f 51f
1:54 20 24 mph 1027.1mb 49f 51f
1:48 20 24 mph 1027.1mb 49f 51f
1:36 20 23 mph 1027.2mb 49f 51f
1:30 18 21 mph 1027.3mb 49f 51f
1:24 18 22 mph 1027.3mb 49f 51f
1:18 17 22 mph 1027.4mb 49f 51f
1:12 16 21 mph 1027.5mb 49f 51f
1:06 17 21 mph 1027.6mb 50f 51f
1:00 17 21 mph 1027.7mb 50f 51f
12:54 17 21 mph 1027.8mb 50f 51f
12:48 16 20 mph 1027.8mb 50f 51f
12:36 15 20 mph 1027.9mb 51f 51f
12:30 16 21 mph 1028mb 51f 51f
12:24 17 21 mph 1028mb 51f 51f
12:18 17 21 mph 1028.1mb 51f 51f
12:12 17 20 mph 1028.1mb 51f 50f
12:06 16 20 mph 1028.2mb 51f 50f
12:00 15 20 mph 1028.3mb 51f 50f
11:54 15 18 mph 1028.4mb 51f 50f
11:48 17 20 mph 1028.5mb 51f 50f
11:36 15 18 mph 1028.5mb 51f 50f
11:30 16 18 mph 1028.5mb 51f 50f
11:24 14 18 mph 1028.6mb 51f 50f
11:18 15 17 mph 1028.6mb 51f 50f
11:12 16 18 mph 1028.6mb 51f 50f
11:06 16 18 mph 1028.6mb 51f 50f
11:00 15 18 mph 1028.7mb 51f 50f
10:54 15 18 mph 1028.8mb 51f 50f
10:48 15 16 mph 1028.9mb 51f 50f
10:36 11 14 mph 1028.9mb 51f 50f
10:30 10 13 mph 1029mb 51f 50f
10:24 9 11 mph 1029.1mb 51f 50f
10:18 7 8 mph 1029.1mb 51f 49f
10:12 6 7 mph 1029mb 51f 49f
10:06 7
mph
1029.1mb 51f 49f
10:00 6 8 mph 1029mb 51f 49f
9:54 3 5 mph 1029mb 51f 49f
9:48 2
mph
1029mb 51f 48f
9:36 5 6 mph 1029mb 51f -
9:30 3 7 mph 1029mb 51f -
9:24 3 7 mph 1029.1mb 51f -
9:18 3 9 mph 1029.2mb 51f -
9:12 5 7 mph 1029.2mb 51f -
9:06 5 7 mph 1029.2mb 51f -
9:00 6 9 mph 1029.3mb 51f -
8:54 8 10 mph 1029.4mb 50f -
8:48 7 13 mph 1029.4mb 50f -
8:36 7 10 mph 1029.5mb 49f 42f
8:30 6 11 mph 1029.5mb 49f 41f
8:24 8 11 mph 1029.5mb 48f 40f
8:18 7 11 mph 1029.6mb 47f 40f
8:12 7 11 mph 1029.6mb 47f 39f
8:06 9 13 mph 1029.6mb 46f 39f
8:00 9 11 mph 1029.7mb 46f 38f
7:54 9 11 mph 1029.7mb 46f 38f
7:48 9 11 mph 1029.8mb 46f 38f
7:36 9 11 mph 1029.8mb 46f 37f
7:30 9 10 mph 1029.8mb 46f 37f
7:24 9 11 mph 1029.8mb 46f 37f
7:18 9 13 mph 1029.8mb 46f 37f
7:12 10 13 mph 1029.9mb 47f 37f
7:06 10 13 mph 1029.9mb 47f 37f
7:00 10 13 mph 1029.9mb 47f 37f
6:54 10 13 mph 1029.9mb 47f 36f
6:48 9 11 mph 1029.9mb 47f 36f
6:36 10 14 mph 1029.9mb 47f 36f
6:30 9 11 mph 1029.9mb 47f 36f
6:24 10 14 mph 1029.9mb 47f 36f
6:18 10 13 mph 1029.9mb 46f 36f
6:12 9 11 mph 1029.9mb 47f 36f
6:06 10 11 mph 1029.9mb 47f 36f
6:00 9 11 mph 1030mb 47f 36f
5:54 9 11 mph 1030mb 47f 36f
5:48 9 11 mph 1030.1mb 47f 37f
5:36 9 11 mph 1030.2mb 47f 37f
5:30 9 11 mph 1030.2mb 47f 37f
5:24 9 13 mph 1030.2mb 47f 37f
5:18 10 13 mph 1030.2mb 47f 37f
5:12 9 11 mph 1030.2mb 47f 37f
5:06 9 11 mph 1030.3mb 47f 37f
5:00 9 11 mph 1030.4mb 47f 37f
4:54 9 11 mph 1030.4mb 47f 37f
4:48 9 11 mph 1030.4mb 47f 37f
4:36 9 11 mph 1030.4mb 48f 38f
4:30 9 11 mph 1030.4mb 48f 38f
4:24 9 11 mph 1030.5mb 48f 38f
4:18 10 13 mph 1030.5mb 48f 38f
4:12 9 11 mph 1030.5mb 48f 38f
4:06 9 11 mph 1030.5mb 48f 38f
4:00 9 10 mph 1030.6mb 48f 38f
3:54 9 11 mph 1030.5mb 48f 38f
3:48 9 10 mph 1030.6mb 48f 38f
3:36 8 11 mph 1030.5mb 48f 38f
3:30 8 10 mph 1030.6mb 48f 38f
3:24 8 10 mph 1030.6mb 48f 38f
3:18 8 10 mph 1030.7mb 48f 38f
3:12 8 10 mph 1030.7mb 48f 38f
3:06 9 10 mph 1030.7mb 48f 39f
3:00 9 10 mph 1030.8mb 48f 39f
2:54 9 11 mph 1030.9mb 48f 39f
2:48 8 10 mph 1030.9mb 48f 39f
2:36  -  mph 1031mb 49f 39f
2:30  -  mph 1031.1mb 49f 39f
2:24  -  mph 1031.1mb 49f 39f
2:18  -  mph 1031.1mb 49f 39f
2:12  -  mph 1031.2mb 49f 40f
2:06  -  mph 1031.3mb 49f 40f